createdAt,value
2022-10-12T00:00:50.261Z,49.80
2022-10-12T00:03:18.207Z,49.70
2022-10-12T00:05:46.417Z,49.80
2022-10-12T00:08:14.259Z,50.00
2022-10-12T00:10:42.377Z,50.00
2022-10-12T00:13:12.216Z,49.90
2022-10-12T00:15:40.409Z,49.90
2022-10-12T00:18:08.202Z,49.90
2022-10-12T00:20:36.051Z,50.00
2022-10-12T00:23:04.196Z,49.90
2022-10-12T00:25:31.961Z,50.10
2022-10-12T00:28:00.417Z,50.10
2022-10-12T00:30:29.472Z,50.10
2022-10-12T00:32:58.380Z,50.00
2022-10-12T00:35:26.171Z,50.10
2022-10-12T00:37:55.713Z,50.20
2022-10-12T00:40:23.595Z,50.20
2022-10-12T00:42:51.493Z,50.20
2022-10-12T00:45:19.667Z,50.30
2022-10-12T00:47:50.949Z,50.20
2022-10-12T00:50:20.680Z,50.10
2022-10-12T00:52:50.996Z,50.20
2022-10-12T00:55:19.994Z,50.30
2022-10-12T00:57:48.024Z,50.20
2022-10-12T01:00:16.721Z,50.30
2022-10-12T01:02:44.454Z,50.20
2022-10-12T01:05:13.824Z,50.40
2022-10-12T01:07:41.632Z,50.30
2022-10-12T01:10:10.694Z,50.40
2022-10-12T01:12:38.687Z,50.50
2022-10-12T01:15:07.991Z,50.40
2022-10-12T01:17:37.926Z,50.70
2022-10-12T01:20:41.093Z,50.60
2022-10-12T01:23:48.038Z,50.60
2022-10-12T01:26:25.268Z,50.40
2022-10-12T01:28:56.688Z,50.60
2022-10-12T01:31:32.400Z,50.70
2022-10-12T01:34:01.928Z,50.80
2022-10-12T01:36:33.219Z,50.70
2022-10-12T01:39:03.619Z,50.60
2022-10-12T01:41:33.293Z,50.80
2022-10-12T01:44:01.164Z,50.90
2022-10-12T01:46:44.190Z,50.90
2022-10-12T01:49:11.865Z,50.60
2022-10-12T01:51:48.097Z,50.80
2022-10-12T01:54:18.711Z,50.90
2022-10-12T01:56:49.531Z,50.60
2022-10-12T01:59:20.125Z,50.80
2022-10-12T02:01:51.877Z,50.90
2022-10-12T02:04:21.971Z,50.90
2022-10-12T02:06:52.829Z,50.90
2022-10-12T02:09:22.147Z,51.00
2022-10-12T02:11:50.245Z,50.80
2022-10-12T02:14:19.137Z,50.90
2022-10-12T02:16:50.949Z,50.80
2022-10-12T02:19:21.057Z,50.90
2022-10-12T02:21:48.755Z,50.90
2022-10-12T02:24:16.782Z,50.90
2022-10-12T02:26:44.595Z,51.00
2022-10-12T02:29:15.823Z,51.00
2022-10-12T02:31:46.733Z,51.10
2022-10-12T02:34:18.187Z,51.00
2022-10-12T02:36:48.608Z,50.90
2022-10-12T02:39:18.422Z,51.10
2022-10-12T02:41:48.307Z,51.10
2022-10-12T02:44:17.516Z,51.20
2022-10-12T02:46:46.006Z,51.20
2022-10-12T02:49:15.169Z,51.20
2022-10-12T02:51:43.433Z,51.20
2022-10-12T02:54:11.410Z,51.00
2022-10-12T02:56:43.858Z,51.20
2022-10-12T02:59:11.736Z,51.10
2022-10-12T03:01:39.930Z,51.10
2022-10-12T03:04:07.699Z,51.20
2022-10-12T03:06:36.832Z,51.10
2022-10-12T03:09:05.176Z,51.20
2022-10-12T03:11:32.952Z,51.40
2022-10-12T03:14:00.749Z,51.40
2022-10-12T03:16:28.487Z,51.30
2022-10-12T03:18:56.632Z,51.20
2022-10-12T03:21:24.565Z,51.30
2022-10-12T03:23:53.981Z,51.30
2022-10-12T03:26:23.041Z,51.50
2022-10-12T03:28:51.645Z,51.50
2022-10-12T03:31:19.579Z,51.30
2022-10-12T03:33:47.845Z,51.30
2022-10-12T03:36:15.614Z,51.30
2022-10-12T03:38:43.891Z,51.60
2022-10-12T03:41:12.995Z,51.60
2022-10-12T03:43:41.094Z,51.40
2022-10-12T03:46:08.827Z,51.40
2022-10-12T03:48:36.931Z,51.50
2022-10-12T03:51:04.835Z,51.70
2022-10-12T03:53:32.753Z,51.70
2022-10-12T03:56:00.553Z,51.40
2022-10-12T03:58:29.942Z,51.60
2022-10-12T04:00:58.161Z,51.50
2022-10-12T04:03:25.938Z,51.70
2022-10-12T04:05:54.670Z,51.80
2022-10-12T04:08:22.888Z,51.60
2022-10-12T04:10:51.468Z,51.70
2022-10-12T04:13:19.591Z,51.50
2022-10-12T04:15:48.671Z,51.60
2022-10-12T04:18:17.094Z,51.70
2022-10-12T04:20:45.021Z,51.60
2022-10-12T04:23:13.429Z,51.80
2022-10-12T04:25:41.262Z,51.80
2022-10-12T04:28:09.464Z,52.00
2022-10-12T04:30:37.263Z,51.90
2022-10-12T04:33:07.065Z,52.10
2022-10-12T04:35:35.195Z,51.90
2022-10-12T04:38:03.595Z,52.00
2022-10-12T04:40:31.457Z,51.80
2022-10-12T04:42:59.173Z,52.00
2022-10-12T04:45:27.280Z,52.00
2022-10-12T04:47:55.025Z,52.10
2022-10-12T04:50:29.661Z,51.80
2022-10-12T04:52:57.822Z,52.10
2022-10-12T04:55:26.168Z,51.90
2022-10-12T04:57:54.049Z,51.90
2022-10-12T05:00:22.260Z,51.90
2022-10-12T05:02:50.647Z,51.90
2022-10-12T05:05:18.771Z,52.00
2022-10-12T05:07:47.843Z,51.90
2022-10-12T05:10:15.743Z,52.10
2022-10-12T05:12:43.787Z,51.90
2022-10-12T05:15:12.621Z,51.80
2022-10-12T05:17:40.906Z,52.00
2022-10-12T05:20:11.109Z,52.00
2022-10-12T05:22:39.031Z,52.10
2022-10-12T05:25:10.689Z,52.10
2022-10-12T05:27:39.095Z,52.00
2022-10-12T05:30:09.510Z,52.20
2022-10-12T05:32:37.643Z,51.90
2022-10-12T05:35:06.717Z,52.10
2022-10-12T05:37:34.666Z,52.10
2022-10-12T05:40:02.984Z,52.10
2022-10-12T05:42:32.250Z,52.00
2022-10-12T05:45:00.439Z,52.20
2022-10-12T05:47:28.665Z,52.10
2022-10-12T05:49:56.672Z,52.20
2022-10-12T05:52:24.551Z,52.10
2022-10-12T05:54:52.317Z,52.10
2022-10-12T05:57:20.050Z,52.20
2022-10-12T05:59:49.531Z,52.30
2022-10-12T06:02:18.455Z,52.20
2022-10-12T06:04:46.618Z,52.10
2022-10-12T06:07:14.609Z,52.20
2022-10-12T06:09:44.719Z,52.20
2022-10-12T06:12:12.710Z,52.20
2022-10-12T06:14:41.093Z,52.10
2022-10-12T06:17:10.153Z,52.20
2022-10-12T06:19:37.892Z,52.10
2022-10-12T06:22:06.313Z,52.10
2022-10-12T06:24:34.261Z,52.30
2022-10-12T06:27:02.757Z,52.40
2022-10-12T06:29:30.643Z,52.20
2022-10-12T06:31:59.466Z,52.10
2022-10-12T06:34:28.635Z,52.20
2022-10-12T06:37:01.520Z,52.30
2022-10-12T06:39:29.874Z,52.30
2022-10-12T06:41:58.156Z,52.20
2022-10-12T06:44:25.960Z,52.30
2022-10-12T06:46:54.086Z,52.30
2022-10-12T06:49:22.082Z,52.20
2022-10-12T06:51:51.444Z,52.30
2022-10-12T06:54:19.403Z,52.30
2022-10-12T06:56:47.600Z,52.30
2022-10-12T06:59:15.466Z,52.00
2022-10-12T07:01:43.538Z,52.00
2022-10-12T07:04:11.696Z,52.10
2022-10-12T07:06:40.092Z,52.10
2022-10-12T07:09:15.233Z,52.10
2022-10-12T07:11:43.405Z,52.20
2022-10-12T07:14:11.321Z,52.20
2022-10-12T07:16:39.076Z,52.30
2022-10-12T07:19:06.890Z,52.00
2022-10-12T07:21:35.521Z,52.40
2022-10-12T07:24:03.278Z,52.80
2022-10-12T07:26:32.890Z,52.30
2022-10-12T07:29:02.164Z,52.20
2022-10-12T07:31:30.962Z,52.10
2022-10-12T07:33:58.721Z,52.10
2022-10-12T07:36:35.791Z,52.00
2022-10-12T07:39:15.181Z,52.20
2022-10-12T07:41:44.549Z,51.90
2022-10-12T07:44:12.690Z,52.20
2022-10-12T07:46:41.019Z,52.00
2022-10-12T07:49:09.305Z,51.90
2022-10-12T07:51:37.149Z,51.90
2022-10-12T07:54:05.087Z,51.90
2022-10-12T07:56:33.105Z,51.40
2022-10-12T07:59:02.398Z,51.30
2022-10-12T08:01:31.095Z,51.10
2022-10-12T08:04:01.756Z,51.50
2022-10-12T08:06:31.435Z,51.20
2022-10-12T08:08:59.801Z,51.20
2022-10-12T08:11:27.551Z,51.00
2022-10-12T08:13:56.041Z,50.80
2022-10-12T08:16:25.211Z,51.20
2022-10-12T08:18:53.431Z,50.70
2022-10-12T08:21:21.107Z,51.00
2022-10-12T08:23:49.686Z,51.00
2022-10-12T08:26:17.732Z,50.60
2022-10-12T08:28:46.264Z,50.40
2022-10-12T08:31:15.101Z,50.30
2022-10-12T08:33:44.511Z,50.30
2022-10-12T08:36:12.889Z,50.20
2022-10-12T08:38:43.464Z,50.00
2022-10-12T08:41:24.567Z,50.10
2022-10-12T08:44:08.437Z,50.00
2022-10-12T08:46:36.096Z,49.80
2022-10-12T08:49:07.296Z,49.50
2022-10-12T08:51:37.436Z,49.40
2022-10-12T08:54:07.923Z,49.40
2022-10-12T08:56:35.876Z,49.40
2022-10-12T08:59:04.352Z,49.30
2022-10-12T09:01:37.078Z,49.20
2022-10-12T09:04:15.503Z,49.30
2022-10-12T09:06:47.201Z,49.30
2022-10-12T09:09:22.122Z,49.30
2022-10-12T09:12:05.168Z,49.10
2022-10-12T09:14:34.768Z,49.00
2022-10-12T09:17:03.908Z,48.70
2022-10-12T09:19:35.739Z,48.50
2022-10-12T09:22:04.087Z,48.20
2022-10-12T09:24:34.979Z,48.10
2022-10-12T09:27:09.310Z,47.70
2022-10-12T09:29:37.133Z,47.50
2022-10-12T09:32:24.813Z,47.30
2022-10-12T09:34:54.071Z,47.10
2022-10-12T09:37:23.036Z,46.70
2022-10-12T09:39:50.983Z,46.40
2022-10-12T09:42:19.384Z,45.90
2022-10-12T09:44:49.036Z,45.60
2022-10-12T09:47:28.572Z,45.40
2022-10-12T09:50:02.163Z,45.40
2022-10-12T09:52:31.901Z,45.20
2022-10-12T09:55:04.854Z,45.10
2022-10-12T09:57:35.634Z,45.00
2022-10-12T10:00:06.577Z,44.80
2022-10-12T10:02:35.239Z,44.70
2022-10-12T10:05:16.397Z,44.50
2022-10-12T10:07:44.688Z,44.70
2022-10-12T10:10:17.690Z,44.50
2022-10-12T10:12:50.916Z,44.60
2022-10-12T10:15:24.193Z,44.40
2022-10-12T10:17:54.272Z,44.20
2022-10-12T10:20:28.281Z,44.00
2022-10-12T10:22:56.149Z,43.60
2022-10-12T10:25:24.595Z,43.30
2022-10-12T10:27:52.616Z,43.10
2022-10-12T10:30:32.453Z,42.60
2022-10-12T10:33:14.942Z,42.30
2022-10-12T10:36:04.493Z,42.00
2022-10-12T10:38:33.869Z,41.60
2022-10-12T10:41:04.302Z,41.10
2022-10-12T10:43:32.444Z,40.70
2022-10-12T10:46:01.296Z,40.40
2022-10-12T10:48:30.320Z,40.00
2022-10-12T10:51:01.189Z,39.60
2022-10-12T10:53:31.319Z,39.20
2022-10-12T10:56:02.749Z,39.00
2022-10-12T10:58:33.734Z,38.80
2022-10-12T11:01:03.533Z,38.40
2022-10-12T11:03:34.125Z,37.20
2022-10-12T11:06:09.661Z,36.00
2022-10-12T11:08:37.966Z,34.50
2022-10-12T11:11:09.143Z,33.00
2022-10-12T11:13:39.766Z,31.70
2022-10-12T11:16:11.844Z,30.30
2022-10-12T11:18:42.240Z,29.40
2022-10-12T11:21:13.741Z,28.60
2022-10-12T11:23:44.077Z,28.10
2022-10-12T11:26:16.831Z,27.40
2022-10-12T11:28:44.965Z,26.80
2022-10-12T11:31:19.020Z,26.20
2022-10-12T11:33:47.113Z,25.80
2022-10-12T11:36:19.714Z,25.50
2022-10-12T11:38:48.041Z,24.90
2022-10-12T11:44:06.221Z,24.20
2022-10-12T11:46:36.425Z,24.00
2022-10-12T11:49:07.307Z,23.80
2022-10-12T11:51:36.343Z,23.50
2022-10-12T11:54:06.007Z,23.40
2022-10-12T11:56:35.713Z,23.50
2022-10-12T11:59:05.637Z,23.20
2022-10-12T12:01:48.945Z,23.00
2022-10-12T12:04:41.107Z,23.10
2022-10-12T12:07:40.720Z,23.10
2022-10-12T12:10:41.715Z,23.00
2022-10-12T12:13:18.676Z,22.70
2022-10-12T12:16:33.711Z,22.50
2022-10-12T12:19:12.326Z,22.30
2022-10-12T12:22:13.523Z,22.20
2022-10-12T12:24:43.228Z,22.00
2022-10-12T12:27:22.321Z,22.00
2022-10-12T12:29:52.216Z,21.80
2022-10-12T12:32:19.864Z,21.70
2022-10-12T12:34:59.262Z,21.50
2022-10-12T12:37:29.810Z,21.50
2022-10-12T12:39:59.709Z,21.30
2022-10-12T12:42:32.097Z,21.30
2022-10-12T12:45:02.316Z,21.10
2022-10-12T12:47:46.473Z,21.00
2022-10-12T12:50:33.070Z,20.90
2022-10-12T12:53:06.600Z,20.90
2022-10-12T12:55:54.386Z,20.90
2022-10-12T12:58:35.473Z,20.90
2022-10-12T13:01:15.771Z,20.70
2022-10-12T13:04:00.673Z,20.70
2022-10-12T13:06:57.165Z,20.70
2022-10-12T13:09:38.722Z,20.60
2022-10-12T13:12:15.304Z,20.60
2022-10-12T13:14:54.591Z,20.60
2022-10-12T13:17:35.414Z,20.50
2022-10-12T13:20:03.555Z,20.70
2022-10-12T13:22:33.294Z,20.60
2022-10-12T13:25:03.025Z,20.70
2022-10-12T13:27:36.055Z,20.80
2022-10-12T13:30:06.935Z,20.60
2022-10-12T13:32:40.255Z,20.80
2022-10-12T13:35:13.654Z,20.70
2022-10-12T13:37:41.647Z,20.80
2022-10-12T13:40:30.651Z,21.30
2022-10-12T13:43:14.980Z,22.30
2022-10-12T13:45:45.730Z,22.30
2022-10-12T13:48:34.037Z,23.70
2022-10-12T13:51:22.648Z,24.00
2022-10-12T13:53:50.701Z,25.10
2022-10-12T13:56:19.335Z,25.60
2022-10-12T13:58:48.978Z,26.20
2022-10-12T14:01:16.860Z,26.90
2022-10-12T14:03:46.994Z,27.40
2022-10-12T14:06:28.949Z,27.50
2022-10-12T14:08:58.390Z,27.60
2022-10-12T14:11:26.584Z,28.00
2022-10-12T14:13:56.373Z,28.20
2022-10-12T14:16:24.407Z,27.90
2022-10-12T14:18:52.515Z,26.70
2022-10-12T14:21:25.840Z,26.70
2022-10-12T14:23:55.081Z,29.00
2022-10-12T14:26:28.981Z,31.30
2022-10-12T14:28:58.694Z,32.40
2022-10-12T14:31:50.195Z,32.60
2022-10-12T14:34:38.130Z,31.90
2022-10-12T14:37:07.481Z,32.50
2022-10-12T14:39:35.181Z,32.40
2022-10-12T14:42:04.936Z,33.00
2022-10-12T14:44:44.104Z,32.70
2022-10-12T14:47:16.581Z,34.40
2022-10-12T14:49:45.116Z,33.20
2022-10-12T14:52:18.791Z,34.00
2022-10-12T14:54:46.489Z,35.00
2022-10-12T14:57:15.721Z,36.40
2022-10-12T14:59:44.808Z,38.40
2022-10-12T15:02:16.006Z,38.70
2022-10-12T15:04:44.232Z,38.60
2022-10-12T15:07:16.741Z,37.90
2022-10-12T15:09:45.197Z,36.80
2022-10-12T15:12:14.324Z,37.00
2022-10-12T15:14:44.251Z,37.30
2022-10-12T15:17:13.580Z,37.90
2022-10-12T15:19:42.126Z,38.30
2022-10-12T15:22:10.943Z,38.40
2022-10-12T15:24:38.612Z,38.70
2022-10-12T15:27:06.692Z,38.70
2022-10-12T15:29:34.428Z,39.00
2022-10-12T15:32:03.794Z,39.10
2022-10-12T15:34:31.510Z,39.30
2022-10-12T15:36:59.358Z,39.60
2022-10-12T15:39:29.280Z,39.60
2022-10-12T15:41:56.976Z,39.80
2022-10-12T15:44:25.119Z,40.00
2022-10-12T15:46:52.930Z,40.10
2022-10-12T15:49:24.679Z,40.30
2022-10-12T15:51:53.138Z,40.50
2022-10-12T15:54:21.549Z,40.60
2022-10-12T15:56:49.467Z,40.80
2022-10-12T15:59:17.270Z,41.00
2022-10-12T16:01:45.260Z,41.20
2022-10-12T16:04:14.647Z,41.30
2022-10-12T16:06:44.122Z,41.40
2022-10-12T16:09:11.799Z,41.70
2022-10-12T16:11:39.874Z,41.70
2022-10-12T16:14:07.579Z,41.60
2022-10-12T16:16:35.696Z,41.90
2022-10-12T16:19:03.369Z,41.90
2022-10-12T16:21:31.443Z,41.80
2022-10-12T16:24:00.674Z,41.80
2022-10-12T16:26:28.826Z,42.00
2022-10-12T16:28:56.935Z,41.80
2022-10-12T16:31:24.642Z,41.80
2022-10-12T16:33:52.693Z,41.80
2022-10-12T16:36:20.874Z,41.70
2022-10-12T16:38:48.541Z,41.80
2022-10-12T16:41:18.989Z,41.80
2022-10-12T16:43:46.671Z,42.10
2022-10-12T16:46:14.991Z,41.80
2022-10-12T16:48:43.985Z,41.80
2022-10-12T16:51:12.771Z,41.80
2022-10-12T16:53:42.678Z,41.80
2022-10-12T16:56:10.714Z,42.00
2022-10-12T16:58:40.516Z,42.10
2022-10-12T17:01:11.523Z,42.10
2022-10-12T17:03:39.795Z,41.80
2022-10-12T17:06:08.549Z,41.90
2022-10-12T17:08:38.938Z,41.80
2022-10-12T17:11:08.633Z,41.70
2022-10-12T17:13:38.603Z,41.60
2022-10-12T17:16:28.187Z,41.70
2022-10-12T17:18:59.474Z,41.50
2022-10-12T17:21:28.527Z,41.60
2022-10-12T17:23:57.227Z,41.50
2022-10-12T17:26:25.328Z,41.50
2022-10-12T17:28:54.793Z,41.40
2022-10-12T17:31:22.925Z,41.40
2022-10-12T17:33:50.828Z,41.40
2022-10-12T17:36:18.742Z,41.40
2022-10-12T17:38:46.525Z,41.40
2022-10-12T17:41:14.298Z,41.30
2022-10-12T17:43:42.651Z,41.40
2022-10-12T17:46:13.456Z,41.30
2022-10-12T17:48:42.111Z,41.30
2022-10-12T17:51:12.748Z,41.20
2022-10-12T17:53:42.527Z,41.30
2022-10-12T17:56:12.720Z,41.40
2022-10-12T17:58:41.293Z,41.50
2022-10-12T18:01:11.849Z,41.70
2022-10-12T18:03:41.481Z,41.80
2022-10-12T18:06:10.391Z,42.00
2022-10-12T18:08:38.894Z,41.90
2022-10-12T18:11:08.526Z,42.10
2022-10-12T18:13:36.617Z,42.20
2022-10-12T18:16:04.762Z,42.30
2022-10-12T18:18:34.193Z,42.40
2022-10-12T18:21:04.548Z,42.40
2022-10-12T18:23:32.501Z,42.50
2022-10-12T18:26:04.564Z,42.50
2022-10-12T18:28:32.554Z,42.60
2022-10-12T18:31:01.332Z,42.80
2022-10-12T18:33:31.080Z,42.70
2022-10-12T18:36:04.901Z,42.90
2022-10-12T18:38:32.966Z,42.80
2022-10-12T18:41:04.248Z,43.00
2022-10-12T18:43:32.259Z,43.20
2022-10-12T18:46:00.004Z,43.10
2022-10-12T18:48:27.968Z,43.20
2022-10-12T18:50:55.873Z,43.20
2022-10-12T18:53:28.268Z,43.20
2022-10-12T18:55:56.253Z,43.30
2022-10-12T18:58:24.159Z,43.50
2022-10-12T19:00:52.441Z,43.50
2022-10-12T19:03:20.527Z,43.60
2022-10-12T19:05:49.112Z,43.70
2022-10-12T19:08:17.110Z,43.70
2022-10-12T19:10:51.838Z,43.70
2022-10-12T19:13:19.651Z,43.70
2022-10-12T19:15:47.737Z,43.80
2022-10-12T19:18:15.799Z,43.90
2022-10-12T19:20:43.823Z,44.00
2022-10-12T19:23:11.703Z,44.00
2022-10-12T19:25:40.111Z,44.00
2022-10-12T19:28:09.573Z,44.10
2022-10-12T19:30:39.059Z,44.00
2022-10-12T19:33:07.176Z,44.10
2022-10-12T19:35:38.154Z,44.10
2022-10-12T19:38:06.318Z,44.20
2022-10-12T19:40:35.926Z,44.20
2022-10-12T19:43:04.099Z,44.20
2022-10-12T19:45:38.020Z,44.30
2022-10-12T19:48:06.714Z,44.30
2022-10-12T19:50:34.702Z,44.30
2022-10-12T19:53:02.779Z,44.30
2022-10-12T19:55:33.795Z,44.40
2022-10-12T19:58:02.056Z,44.40
2022-10-12T20:00:30.167Z,44.50
2022-10-12T20:02:59.665Z,44.50
2022-10-12T20:05:27.702Z,44.50
2022-10-12T20:07:55.616Z,44.60
2022-10-12T20:10:24.080Z,44.60
2022-10-12T20:12:51.977Z,44.70
2022-10-12T20:15:20.183Z,44.80
2022-10-12T20:17:48.088Z,44.80
2022-10-12T20:20:17.540Z,44.80
2022-10-12T20:22:45.360Z,44.90
2022-10-12T20:25:13.236Z,45.00
2022-10-12T20:27:41.060Z,45.10
2022-10-12T20:30:09.956Z,45.20
2022-10-12T20:32:37.779Z,45.10
2022-10-12T20:35:06.396Z,45.10
2022-10-12T20:37:35.500Z,45.10
2022-10-12T20:40:03.371Z,45.20
2022-10-12T20:42:31.383Z,45.40
2022-10-12T20:44:59.361Z,45.30
2022-10-12T20:47:27.997Z,45.20
2022-10-12T20:49:55.884Z,45.50
2022-10-12T20:52:23.773Z,45.40
2022-10-12T20:54:54.331Z,45.40
2022-10-12T20:57:22.184Z,45.40
2022-10-12T20:59:50.272Z,45.40
2022-10-12T21:02:18.265Z,45.60
2022-10-12T21:04:46.282Z,45.60
2022-10-12T21:07:14.468Z,45.60
2022-10-12T21:09:42.903Z,45.70
2022-10-12T21:12:12.174Z,45.60
2022-10-12T21:14:40.530Z,45.70
2022-10-12T21:17:08.544Z,45.70
2022-10-12T21:19:36.485Z,45.80
2022-10-12T21:22:04.431Z,45.60
2022-10-12T21:24:32.362Z,45.50
2022-10-12T21:27:00.178Z,45.30
2022-10-12T21:29:29.383Z,45.30
2022-10-12T21:31:57.254Z,45.20
2022-10-12T21:34:25.197Z,45.30
2022-10-12T21:36:53.306Z,45.00
2022-10-12T21:39:21.038Z,45.00
2022-10-12T21:41:49.204Z,45.50
2022-10-12T21:44:17.188Z,44.80
2022-10-12T21:46:46.951Z,44.80
2022-10-12T21:49:14.750Z,44.60
2022-10-12T21:51:42.509Z,44.60
2022-10-12T21:54:10.325Z,44.40
2022-10-12T21:56:38.873Z,44.40
2022-10-12T21:59:07.315Z,44.40
2022-10-12T22:01:36.103Z,44.40
2022-10-12T22:04:06.584Z,44.40
2022-10-12T22:06:34.784Z,44.30
2022-10-12T22:09:03.456Z,44.20
2022-10-12T22:11:31.808Z,44.10
2022-10-12T22:14:01.855Z,44.10
2022-10-12T22:16:30.344Z,44.20
2022-10-12T22:18:59.390Z,44.00
2022-10-12T22:21:28.791Z,43.90
2022-10-12T22:23:57.641Z,43.90
2022-10-12T22:26:26.073Z,43.90
2022-10-12T22:28:54.043Z,44.00
2022-10-12T22:31:22.718Z,43.80
2022-10-12T22:33:50.720Z,43.70
2022-10-12T22:36:18.710Z,43.70
2022-10-12T22:38:48.160Z,43.70
2022-10-12T22:41:16.950Z,43.80
2022-10-12T22:43:44.901Z,43.90
2022-10-12T22:46:12.875Z,43.50
2022-10-12T22:48:40.656Z,43.80
2022-10-12T22:51:08.455Z,43.80
2022-10-12T22:53:36.518Z,43.70
2022-10-12T22:56:07.118Z,43.50
2022-10-12T22:58:35.414Z,43.60
2022-10-12T23:01:03.804Z,43.60
2022-10-12T23:03:32.202Z,43.60
2022-10-12T23:06:00.185Z,43.80
2022-10-12T23:08:28.755Z,44.00
2022-10-12T23:10:56.517Z,44.10
2022-10-12T23:13:26.491Z,44.30
2022-10-12T23:15:54.459Z,44.30
2022-10-12T23:18:22.967Z,44.50
2022-10-12T23:20:50.877Z,44.40
2022-10-12T23:23:19.157Z,44.60
2022-10-12T23:25:46.893Z,44.70
2022-10-12T23:28:15.143Z,44.70
2022-10-12T23:30:44.395Z,45.00
2022-10-12T23:33:12.323Z,44.80
2022-10-12T23:35:40.661Z,45.00
2022-10-12T23:38:08.381Z,45.20
2022-10-12T23:40:36.705Z,45.20
2022-10-12T23:43:04.691Z,45.20
2022-10-12T23:45:32.671Z,45.30
2022-10-12T23:48:02.097Z,45.40
2022-10-12T23:50:30.516Z,45.30
2022-10-12T23:52:58.452Z,45.40
2022-10-12T23:55:26.695Z,45.40
2022-10-12T23:57:54.636Z,45.60
